sensor_id;sensor_type;location;lat;lon;timestamp;P1;durP1;ratioP1;P2;durP2;ratioP2
46815;SDS011;32787;53.316;8.670;2023-06-04T00:02:16;7.13;;;2.25;;
46815;SDS011;32787;53.316;8.670;2023-06-04T00:04:41;6.47;;;2.28;;
46815;SDS011;32787;53.316;8.670;2023-06-04T00:07:07;6.63;;;2.13;;
46815;SDS011;32787;53.316;8.670;2023-06-04T00:09:33;8.27;;;2.17;;
46815;SDS011;32787;53.316;8.670;2023-06-04T00:11:58;8.77;;;2.30;;
46815;SDS011;32787;53.316;8.670;2023-06-04T00:14:24;8.57;;;2.40;;
46815;SDS011;32787;53.316;8.670;2023-06-04T00:16:50;9.30;;;2.42;;
46815;SDS011;32787;53.316;8.670;2023-06-04T00:19:15;5.95;;;2.20;;
46815;SDS011;32787;53.316;8.670;2023-06-04T00:21:41;8.75;;;2.45;;
46815;SDS011;32787;53.316;8.670;2023-06-04T00:24:07;9.00;;;2.40;;
46815;SDS011;32787;53.316;8.670;2023-06-04T00:26:33;5.78;;;2.50;;
46815;SDS011;32787;53.316;8.670;2023-06-04T00:28:59;7.85;;;2.33;;
46815;SDS011;32787;53.316;8.670;2023-06-04T00:31:25;7.10;;;2.50;;
46815;SDS011;32787;53.316;8.670;2023-06-04T00:33:51;6.80;;;2.38;;
46815;SDS011;32787;53.316;8.670;2023-06-04T00:36:17;6.43;;;2.20;;
46815;SDS011;32787;53.316;8.670;2023-06-04T00:38:43;7.35;;;2.67;;
46815;SDS011;32787;53.316;8.670;2023-06-04T00:41:08;6.72;;;2.15;;
46815;SDS011;32787;53.316;8.670;2023-06-04T00:43:34;8.35;;;2.80;;
46815;SDS011;32787;53.316;8.670;2023-06-04T00:46:01;6.22;;;2.47;;
46815;SDS011;32787;53.316;8.670;2023-06-04T00:48:28;6.70;;;2.50;;
46815;SDS011;32787;53.316;8.670;2023-06-04T00:50:55;5.68;;;2.80;;
46815;SDS011;32787;53.316;8.670;2023-06-04T00:53:21;8.73;;;2.60;;
46815;SDS011;32787;53.316;8.670;2023-06-04T00:55:49;9.57;;;3.03;;
46815;SDS011;32787;53.316;8.670;2023-06-04T00:58:15;7.15;;;2.83;;
46815;SDS011;32787;53.316;8.670;2023-06-04T01:00:44;7.57;;;2.80;;
46815;SDS011;32787;53.316;8.670;2023-06-04T01:03:10;6.50;;;2.72;;
46815;SDS011;32787;53.316;8.670;2023-06-04T01:05:43;6.82;;;2.58;;
46815;SDS011;32787;53.316;8.670;2023-06-04T01:08:21;7.10;;;2.60;;
46815;SDS011;32787;53.316;8.670;2023-06-04T01:10:52;7.90;;;2.72;;
46815;SDS011;32787;53.316;8.670;2023-06-04T01:13:21;9.02;;;2.90;;
46815;SDS011;32787;53.316;8.670;2023-06-04T01:15:47;6.97;;;2.75;;
46815;SDS011;32787;53.316;8.670;2023-06-04T01:18:18;8.13;;;2.78;;
46815;SDS011;32787;53.316;8.670;2023-06-04T01:20:57;6.60;;;2.63;;
46815;SDS011;32787;53.316;8.670;2023-06-04T01:23:28;7.78;;;3.05;;
46815;SDS011;32787;53.316;8.670;2023-06-04T01:26:02;10.90;;;3.38;;
46815;SDS011;32787;53.316;8.670;2023-06-04T01:28:29;7.18;;;2.80;;
46815;SDS011;32787;53.316;8.670;2023-06-04T01:30:56;6.50;;;2.80;;
46815;SDS011;32787;53.316;8.670;2023-06-04T01:33:24;6.18;;;2.90;;
46815;SDS011;32787;53.316;8.670;2023-06-04T01:35:50;9.07;;;2.83;;
46815;SDS011;32787;53.316;8.670;2023-06-04T01:38:16;8.02;;;2.80;;
46815;SDS011;32787;53.316;8.670;2023-06-04T01:40:42;10.23;;;3.35;;
46815;SDS011;32787;53.316;8.670;2023-06-04T01:43:08;5.75;;;2.67;;
46815;SDS011;32787;53.316;8.670;2023-06-04T01:45:34;9.18;;;3.67;;
46815;SDS011;32787;53.316;8.670;2023-06-04T01:48:03;9.07;;;3.35;;
46815;SDS011;32787;53.316;8.670;2023-06-04T01:50:29;8.10;;;3.38;;
46815;SDS011;32787;53.316;8.670;2023-06-04T01:52:55;7.50;;;3.10;;
46815;SDS011;32787;53.316;8.670;2023-06-04T01:55:22;7.88;;;3.10;;
46815;SDS011;32787;53.316;8.670;2023-06-04T01:57:50;7.60;;;3.10;;
46815;SDS011;32787;53.316;8.670;2023-06-04T02:00:16;9.20;;;3.72;;
46815;SDS011;32787;53.316;8.670;2023-06-04T02:02:43;10.68;;;3.10;;
46815;SDS011;32787;53.316;8.670;2023-06-04T02:05:16;8.65;;;3.40;;
46815;SDS011;32787;53.316;8.670;2023-06-04T02:07:42;9.52;;;3.97;;
46815;SDS011;32787;53.316;8.670;2023-06-04T02:10:19;8.75;;;3.60;;
46815;SDS011;32787;53.316;8.670;2023-06-04T02:15:24;9.02;;;3.58;;
46815;SDS011;32787;53.316;8.670;2023-06-04T02:17:53;9.00;;;3.83;;
46815;SDS011;32787;53.316;8.670;2023-06-04T02:20:23;10.27;;;3.90;;
46815;SDS011;32787;53.316;8.670;2023-06-04T02:22:49;8.35;;;3.35;;
46815;SDS011;32787;53.316;8.670;2023-06-04T02:25:14;10.50;;;3.67;;
46815;SDS011;32787;53.316;8.670;2023-06-04T02:27:40;7.72;;;3.53;;
46815;SDS011;32787;53.316;8.670;2023-06-04T02:30:06;6.75;;;3.50;;
46815;SDS011;32787;53.316;8.670;2023-06-04T02:32:32;9.80;;;3.47;;
46815;SDS011;32787;53.316;8.670;2023-06-04T02:34:58;7.13;;;3.85;;
46815;SDS011;32787;53.316;8.670;2023-06-04T02:37:24;8.27;;;3.58;;
46815;SDS011;32787;53.316;8.670;2023-06-04T02:39:50;9.65;;;3.88;;
46815;SDS011;32787;53.316;8.670;2023-06-04T02:42:15;8.23;;;4.30;;
46815;SDS011;32787;53.316;8.670;2023-06-04T02:44:41;9.95;;;3.45;;
46815;SDS011;32787;53.316;8.670;2023-06-04T02:47:06;9.00;;;3.78;;
46815;SDS011;32787;53.316;8.670;2023-06-04T02:49:32;10.57;;;3.53;;
46815;SDS011;32787;53.316;8.670;2023-06-04T02:51:58;8.13;;;3.47;;
46815;SDS011;32787;53.316;8.670;2023-06-04T02:54:23;12.48;;;3.90;;
46815;SDS011;32787;53.316;8.670;2023-06-04T02:56:49;9.35;;;3.58;;
46815;SDS011;32787;53.316;8.670;2023-06-04T02:59:16;13.23;;;4.25;;
46815;SDS011;32787;53.316;8.670;2023-06-04T03:01:41;8.93;;;4.13;;
46815;SDS011;32787;53.316;8.670;2023-06-04T03:04:08;10.27;;;4.10;;
46815;SDS011;32787;53.316;8.670;2023-06-04T03:06:35;10.00;;;4.30;;
46815;SDS011;32787;53.316;8.670;2023-06-04T03:09:04;8.23;;;3.75;;
46815;SDS011;32787;53.316;8.670;2023-06-04T03:11:30;10.23;;;4.13;;
46815;SDS011;32787;53.316;8.670;2023-06-04T03:13:56;8.93;;;3.70;;
46815;SDS011;32787;53.316;8.670;2023-06-04T03:16:21;9.77;;;4.28;;
46815;SDS011;32787;53.316;8.670;2023-06-04T03:18:47;8.63;;;4.45;;
46815;SDS011;32787;53.316;8.670;2023-06-04T03:21:13;11.35;;;5.03;;
46815;SDS011;32787;53.316;8.670;2023-06-04T03:23:39;10.05;;;4.47;;
46815;SDS011;32787;53.316;8.670;2023-06-04T03:26:05;8.65;;;4.75;;
46815;SDS011;32787;53.316;8.670;2023-06-04T03:28:32;9.85;;;4.32;;
46815;SDS011;32787;53.316;8.670;2023-06-04T03:30:58;12.05;;;4.90;;
46815;SDS011;32787;53.316;8.670;2023-06-04T03:33:24;7.82;;;4.30;;
46815;SDS011;32787;53.316;8.670;2023-06-04T03:35:50;11.65;;;4.32;;
46815;SDS011;32787;53.316;8.670;2023-06-04T03:38:17;9.35;;;4.75;;
46815;SDS011;32787;53.316;8.670;2023-06-04T03:40:43;10.48;;;5.43;;
46815;SDS011;32787;53.316;8.670;2023-06-04T03:43:10;8.85;;;5.05;;
46815;SDS011;32787;53.316;8.670;2023-06-04T03:45:36;8.82;;;4.70;;
46815;SDS011;32787;53.316;8.670;2023-06-04T03:48:02;10.00;;;4.93;;
46815;SDS011;32787;53.316;8.670;2023-06-04T03:50:27;10.98;;;5.90;;
46815;SDS011;32787;53.316;8.670;2023-06-04T03:52:53;11.60;;;4.80;;
46815;SDS011;32787;53.316;8.670;2023-06-04T03:55:19;12.48;;;4.85;;
46815;SDS011;32787;53.316;8.670;2023-06-04T03:57:44;9.10;;;4.20;;
46815;SDS011;32787;53.316;8.670;2023-06-04T04:00:11;8.75;;;3.90;;
46815;SDS011;32787;53.316;8.670;2023-06-04T04:02:38;11.98;;;4.97;;
46815;SDS011;32787;53.316;8.670;2023-06-04T04:05:07;9.30;;;4.37;;
46815;SDS011;32787;53.316;8.670;2023-06-04T04:07:34;11.65;;;4.72;;
46815;SDS011;32787;53.316;8.670;2023-06-04T04:10:00;8.68;;;4.88;;
46815;SDS011;32787;53.316;8.670;2023-06-04T04:12:25;8.48;;;3.75;;
46815;SDS011;32787;53.316;8.670;2023-06-04T04:14:51;9.32;;;4.15;;
46815;SDS011;32787;53.316;8.670;2023-06-04T04:17:17;10.93;;;4.57;;
46815;SDS011;32787;53.316;8.670;2023-06-04T04:19:42;9.63;;;4.60;;
46815;SDS011;32787;53.316;8.670;2023-06-04T04:22:09;7.95;;;5.18;;
46815;SDS011;32787;53.316;8.670;2023-06-04T04:24:35;13.85;;;5.30;;
46815;SDS011;32787;53.316;8.670;2023-06-04T04:27:02;10.80;;;5.25;;
46815;SDS011;32787;53.316;8.670;2023-06-04T04:29:29;9.98;;;4.45;;
46815;SDS011;32787;53.316;8.670;2023-06-04T04:31:57;10.43;;;5.28;;
46815;SDS011;32787;53.316;8.670;2023-06-04T04:34:26;14.80;;;7.15;;
46815;SDS011;32787;53.316;8.670;2023-06-04T04:36:52;14.70;;;5.32;;
46815;SDS011;32787;53.316;8.670;2023-06-04T04:39:24;12.13;;;5.75;;
46815;SDS011;32787;53.316;8.670;2023-06-04T04:41:50;13.27;;;5.57;;
46815;SDS011;32787;53.316;8.670;2023-06-04T04:44:16;12.77;;;6.93;;
46815;SDS011;32787;53.316;8.670;2023-06-04T04:46:42;12.32;;;7.13;;
46815;SDS011;32787;53.316;8.670;2023-06-04T04:49:08;14.18;;;6.40;;
46815;SDS011;32787;53.316;8.670;2023-06-04T04:51:33;16.05;;;7.03;;
46815;SDS011;32787;53.316;8.670;2023-06-04T04:54:00;11.27;;;6.32;;
46815;SDS011;32787;53.316;8.670;2023-06-04T04:56:25;15.07;;;6.47;;
46815;SDS011;32787;53.316;8.670;2023-06-04T04:58:52;18.80;;;6.95;;
46815;SDS011;32787;53.316;8.670;2023-06-04T05:01:18;13.32;;;6.15;;
46815;SDS011;32787;53.316;8.670;2023-06-04T05:03:44;16.08;;;5.65;;
46815;SDS011;32787;53.316;8.670;2023-06-04T05:06:09;15.10;;;6.68;;
46815;SDS011;32787;53.316;8.670;2023-06-04T05:08:35;13.82;;;5.95;;
46815;SDS011;32787;53.316;8.670;2023-06-04T05:11:01;17.05;;;6.82;;
46815;SDS011;32787;53.316;8.670;2023-06-04T05:13:26;12.98;;;6.22;;
46815;SDS011;32787;53.316;8.670;2023-06-04T05:15:52;13.80;;;6.20;;
46815;SDS011;32787;53.316;8.670;2023-06-04T05:18:18;14.38;;;6.18;;
46815;SDS011;32787;53.316;8.670;2023-06-04T05:20:57;16.33;;;6.47;;
46815;SDS011;32787;53.316;8.670;2023-06-04T05:23:25;17.63;;;7.00;;
46815;SDS011;32787;53.316;8.670;2023-06-04T05:25:51;11.38;;;6.05;;
46815;SDS011;32787;53.316;8.670;2023-06-04T05:28:17;14.55;;;5.40;;
46815;SDS011;32787;53.316;8.670;2023-06-04T05:30:43;18.42;;;5.65;;
46815;SDS011;32787;53.316;8.670;2023-06-04T05:33:09;13.23;;;5.18;;
46815;SDS011;32787;53.316;8.670;2023-06-04T05:35:42;14.30;;;6.18;;
46815;SDS011;32787;53.316;8.670;2023-06-04T05:38:09;15.82;;;5.93;;
46815;SDS011;32787;53.316;8.670;2023-06-04T05:40:34;15.20;;;5.60;;
46815;SDS011;32787;53.316;8.670;2023-06-04T05:43:00;10.98;;;4.60;;
46815;SDS011;32787;53.316;8.670;2023-06-04T05:45:26;14.48;;;5.20;;
46815;SDS011;32787;53.316;8.670;2023-06-04T05:47:53;10.75;;;4.97;;
46815;SDS011;32787;53.316;8.670;2023-06-04T05:50:19;11.65;;;5.45;;
46815;SDS011;32787;53.316;8.670;2023-06-04T05:52:45;13.93;;;5.30;;
46815;SDS011;32787;53.316;8.670;2023-06-04T05:55:10;15.48;;;5.53;;
46815;SDS011;32787;53.316;8.670;2023-06-04T05:57:36;17.55;;;6.05;;
46815;SDS011;32787;53.316;8.670;2023-06-04T06:00:02;15.88;;;5.10;;
46815;SDS011;32787;53.316;8.670;2023-06-04T06:02:33;14.70;;;4.93;;
46815;SDS011;32787;53.316;8.670;2023-06-04T06:04:59;10.48;;;4.60;;
46815;SDS011;32787;53.316;8.670;2023-06-04T06:07:25;13.32;;;4.20;;
46815;SDS011;32787;53.316;8.670;2023-06-04T06:09:50;11.80;;;4.85;;
46815;SDS011;32787;53.316;8.670;2023-06-04T06:12:16;11.10;;;4.57;;
46815;SDS011;32787;53.316;8.670;2023-06-04T06:14:42;15.10;;;3.78;;
46815;SDS011;32787;53.316;8.670;2023-06-04T06:17:07;12.82;;;4.25;;
46815;SDS011;32787;53.316;8.670;2023-06-04T06:19:33;9.82;;;3.72;;
46815;SDS011;32787;53.316;8.670;2023-06-04T06:21:59;12.80;;;3.40;;
46815;SDS011;32787;53.316;8.670;2023-06-04T06:24:24;10.82;;;3.30;;
46815;SDS011;32787;53.316;8.670;2023-06-04T06:26:50;12.77;;;3.65;;
46815;SDS011;32787;53.316;8.670;2023-06-04T06:29:16;11.77;;;3.10;;
46815;SDS011;32787;53.316;8.670;2023-06-04T06:31:41;7.90;;;2.70;;
46815;SDS011;32787;53.316;8.670;2023-06-04T06:34:07;10.40;;;2.78;;
46815;SDS011;32787;53.316;8.670;2023-06-04T06:36:32;8.45;;;2.83;;
46815;SDS011;32787;53.316;8.670;2023-06-04T06:38:59;8.15;;;2.85;;
46815;SDS011;32787;53.316;8.670;2023-06-04T06:41:24;11.88;;;2.80;;
46815;SDS011;32787;53.316;8.670;2023-06-04T06:43:51;8.88;;;2.70;;
46815;SDS011;32787;53.316;8.670;2023-06-04T06:46:16;9.13;;;2.80;;
46815;SDS011;32787;53.316;8.670;2023-06-04T06:48:42;10.45;;;2.63;;
46815;SDS011;32787;53.316;8.670;2023-06-04T06:51:10;8.50;;;2.80;;
46815;SDS011;32787;53.316;8.670;2023-06-04T06:53:36;8.38;;;2.47;;
46815;SDS011;32787;53.316;8.670;2023-06-04T06:56:02;9.27;;;2.50;;
46815;SDS011;32787;53.316;8.670;2023-06-04T06:58:27;7.78;;;2.20;;
46815;SDS011;32787;53.316;8.670;2023-06-04T07:00:53;9.23;;;2.38;;
46815;SDS011;32787;53.316;8.670;2023-06-04T07:03:21;8.35;;;2.38;;
46815;SDS011;32787;53.316;8.670;2023-06-04T07:05:47;8.68;;;2.17;;
46815;SDS011;32787;53.316;8.670;2023-06-04T07:08:13;10.55;;;2.63;;
46815;SDS011;32787;53.316;8.670;2023-06-04T07:10:39;7.82;;;2.20;;
46815;SDS011;32787;53.316;8.670;2023-06-04T07:13:04;6.07;;;2.22;;
46815;SDS011;32787;53.316;8.670;2023-06-04T07:15:30;8.98;;;2.50;;
46815;SDS011;32787;53.316;8.670;2023-06-04T07:17:56;8.23;;;2.28;;
46815;SDS011;32787;53.316;8.670;2023-06-04T07:20:21;9.30;;;2.20;;
46815;SDS011;32787;53.316;8.670;2023-06-04T07:22:47;7.40;;;2.25;;
46815;SDS011;32787;53.316;8.670;2023-06-04T07:25:12;8.13;;;2.55;;
46815;SDS011;32787;53.316;8.670;2023-06-04T07:27:38;8.70;;;2.58;;
46815;SDS011;32787;53.316;8.670;2023-06-04T07:30:05;7.78;;;2.15;;
46815;SDS011;32787;53.316;8.670;2023-06-04T07:32:31;10.43;;;2.60;;
46815;SDS011;32787;53.316;8.670;2023-06-04T07:34:57;8.05;;;2.15;;
46815;SDS011;32787;53.316;8.670;2023-06-04T07:37:22;11.13;;;2.10;;
46815;SDS011;32787;53.316;8.670;2023-06-04T07:39:48;9.30;;;2.05;;
46815;SDS011;32787;53.316;8.670;2023-06-04T07:42:14;6.18;;;1.77;;
46815;SDS011;32787;53.316;8.670;2023-06-04T07:44:39;6.55;;;1.90;;
46815;SDS011;32787;53.316;8.670;2023-06-04T07:47:05;7.47;;;2.05;;
46815;SDS011;32787;53.316;8.670;2023-06-04T07:49:31;7.20;;;1.55;;
46815;SDS011;32787;53.316;8.670;2023-06-04T07:51:56;6.68;;;2.00;;
46815;SDS011;32787;53.316;8.670;2023-06-04T07:54:22;9.52;;;2.10;;
46815;SDS011;32787;53.316;8.670;2023-06-04T07:56:48;8.25;;;2.13;;
46815;SDS011;32787;53.316;8.670;2023-06-04T07:59:14;8.68;;;1.73;;
46815;SDS011;32787;53.316;8.670;2023-06-04T08:01:39;6.53;;;1.80;;
46815;SDS011;32787;53.316;8.670;2023-06-04T08:04:05;3.90;;;1.80;;
46815;SDS011;32787;53.316;8.670;2023-06-04T08:06:31;8.68;;;2.38;;
46815;SDS011;32787;53.316;8.670;2023-06-04T08:08:56;9.32;;;1.80;;
46815;SDS011;32787;53.316;8.670;2023-06-04T08:11:22;7.28;;;2.10;;
46815;SDS011;32787;53.316;8.670;2023-06-04T08:13:48;7.22;;;1.98;;
46815;SDS011;32787;53.316;8.670;2023-06-04T08:16:13;9.52;;;2.25;;
46815;SDS011;32787;53.316;8.670;2023-06-04T08:18:40;9.68;;;2.50;;
46815;SDS011;32787;53.316;8.670;2023-06-04T08:21:05;7.03;;;2.30;;
46815;SDS011;32787;53.316;8.670;2023-06-04T08:23:34;7.57;;;1.90;;
46815;SDS011;32787;53.316;8.670;2023-06-04T08:25:59;8.40;;;2.22;;
46815;SDS011;32787;53.316;8.670;2023-06-04T08:28:25;7.30;;;1.58;;
46815;SDS011;32787;53.316;8.670;2023-06-04T08:30:50;5.93;;;1.70;;
46815;SDS011;32787;53.316;8.670;2023-06-04T08:33:16;7.95;;;1.95;;
46815;SDS011;32787;53.316;8.670;2023-06-04T08:35:41;7.47;;;1.73;;
46815;SDS011;32787;53.316;8.670;2023-06-04T08:38:07;6.20;;;1.60;;
46815;SDS011;32787;53.316;8.670;2023-06-04T08:40:33;4.25;;;1.33;;
46815;SDS011;32787;53.316;8.670;2023-06-04T08:43:00;5.43;;;1.27;;
46815;SDS011;32787;53.316;8.670;2023-06-04T08:45:26;5.50;;;1.50;;
46815;SDS011;32787;53.316;8.670;2023-06-04T08:47:52;4.70;;;1.48;;
46815;SDS011;32787;53.316;8.670;2023-06-04T08:50:19;3.78;;;1.20;;
46815;SDS011;32787;53.316;8.670;2023-06-04T08:52:46;5.18;;;1.42;;
46815;SDS011;32787;53.316;8.670;2023-06-04T08:55:13;4.60;;;1.30;;
46815;SDS011;32787;53.316;8.670;2023-06-04T08:57:40;6.13;;;1.50;;
46815;SDS011;32787;53.316;8.670;2023-06-04T09:00:07;7.20;;;1.73;;
46815;SDS011;32787;53.316;8.670;2023-06-04T09:02:35;5.65;;;1.70;;
46815;SDS011;32787;53.316;8.670;2023-06-04T09:05:03;6.63;;;1.67;;
46815;SDS011;32787;53.316;8.670;2023-06-04T09:07:29;5.15;;;1.58;;
46815;SDS011;32787;53.316;8.670;2023-06-04T09:09:56;4.85;;;1.38;;
46815;SDS011;32787;53.316;8.670;2023-06-04T09:12:24;5.45;;;1.52;;
46815;SDS011;32787;53.316;8.670;2023-06-04T09:14:50;5.38;;;1.52;;
46815;SDS011;32787;53.316;8.670;2023-06-04T09:17:23;6.47;;;1.50;;
46815;SDS011;32787;53.316;8.670;2023-06-04T09:19:49;5.13;;;1.52;;
46815;SDS011;32787;53.316;8.670;2023-06-04T09:22:15;6.70;;;1.58;;
46815;SDS011;32787;53.316;8.670;2023-06-04T09:24:42;4.53;;;1.23;;
46815;SDS011;32787;53.316;8.670;2023-06-04T09:27:13;6.20;;;1.83;;
46815;SDS011;32787;53.316;8.670;2023-06-04T09:29:40;4.75;;;1.33;;
46815;SDS011;32787;53.316;8.670;2023-06-04T09:32:20;4.68;;;1.42;;
46815;SDS011;32787;53.316;8.670;2023-06-04T09:34:50;7.45;;;1.55;;
46815;SDS011;32787;53.316;8.670;2023-06-04T09:37:17;5.47;;;1.40;;
46815;SDS011;32787;53.316;8.670;2023-06-04T09:39:43;9.40;;;1.70;;
46815;SDS011;32787;53.316;8.670;2023-06-04T09:42:18;5.50;;;1.52;;
46815;SDS011;32787;53.316;8.670;2023-06-04T09:44:44;6.15;;;1.50;;
46815;SDS011;32787;53.316;8.670;2023-06-04T09:47:12;4.35;;;1.60;;
46815;SDS011;32787;53.316;8.670;2023-06-04T09:49:45;5.90;;;1.77;;
46815;SDS011;32787;53.316;8.670;2023-06-04T09:52:12;6.18;;;1.83;;
46815;SDS011;32787;53.316;8.670;2023-06-04T09:54:39;7.78;;;1.98;;
46815;SDS011;32787;53.316;8.670;2023-06-04T09:57:15;6.10;;;1.75;;
46815;SDS011;32787;53.316;8.670;2023-06-04T09:59:46;5.75;;;1.80;;
46815;SDS011;32787;53.316;8.670;2023-06-04T10:02:20;6.88;;;1.55;;
46815;SDS011;32787;53.316;8.670;2023-06-04T10:04:53;5.90;;;1.83;;
46815;SDS011;32787;53.316;8.670;2023-06-04T10:07:22;8.10;;;1.80;;
46815;SDS011;32787;53.316;8.670;2023-06-04T10:12:17;5.55;;;1.75;;
46815;SDS011;32787;53.316;8.670;2023-06-04T10:14:59;6.35;;;1.90;;
46815;SDS011;32787;53.316;8.670;2023-06-04T10:17:30;5.22;;;1.60;;
46815;SDS011;32787;53.316;8.670;2023-06-04T10:19:58;8.60;;;1.60;;
46815;SDS011;32787;53.316;8.670;2023-06-04T10:22:28;7.18;;;1.70;;
46815;SDS011;32787;53.316;8.670;2023-06-04T10:24:54;7.20;;;1.80;;
46815;SDS011;32787;53.316;8.670;2023-06-04T10:27:20;6.90;;;1.77;;
46815;SDS011;32787;53.316;8.670;2023-06-04T10:29:47;6.63;;;1.73;;
46815;SDS011;32787;53.316;8.670;2023-06-04T10:32:14;7.65;;;1.83;;
46815;SDS011;32787;53.316;8.670;2023-06-04T10:34:41;6.93;;;1.92;;
46815;SDS011;32787;53.316;8.670;2023-06-04T10:37:18;5.63;;;1.73;;
46815;SDS011;32787;53.316;8.670;2023-06-04T10:39:54;4.72;;;1.50;;
46815;SDS011;32787;53.316;8.670;2023-06-04T10:42:25;6.80;;;1.67;;
46815;SDS011;32787;53.316;8.670;2023-06-04T10:44:54;7.57;;;1.90;;
46815;SDS011;32787;53.316;8.670;2023-06-04T10:47:27;5.45;;;1.60;;
46815;SDS011;32787;53.316;8.670;2023-06-04T10:50:07;5.20;;;1.75;;
46815;SDS011;32787;53.316;8.670;2023-06-04T10:52:37;5.40;;;1.98;;
46815;SDS011;32787;53.316;8.670;2023-06-04T10:55:24;12.55;;;2.38;;
46815;SDS011;32787;53.316;8.670;2023-06-04T10:58:00;7.90;;;2.17;;
46815;SDS011;32787;53.316;8.670;2023-06-04T11:00:39;8.48;;;2.40;;
46815;SDS011;32787;53.316;8.670;2023-06-04T11:03:07;8.80;;;2.50;;
46815;SDS011;32787;53.316;8.670;2023-06-04T11:08:04;8.55;;;2.20;;
46815;SDS011;32787;53.316;8.670;2023-06-04T11:10:38;6.30;;;2.38;;
46815;SDS011;32787;53.316;8.670;2023-06-04T11:13:08;7.50;;;2.08;;
46815;SDS011;32787;53.316;8.670;2023-06-04T11:15:41;7.18;;;2.13;;
46815;SDS011;32787;53.316;8.670;2023-06-04T11:18:07;6.90;;;2.38;;
46815;SDS011;32787;53.316;8.670;2023-06-04T11:20:32;8.73;;;2.30;;
46815;SDS011;32787;53.316;8.670;2023-06-04T11:22:58;6.72;;;2.08;;
46815;SDS011;32787;53.316;8.670;2023-06-04T11:25:27;5.57;;;2.00;;
46815;SDS011;32787;53.316;8.670;2023-06-04T11:27:55;7.80;;;2.42;;
46815;SDS011;32787;53.316;8.670;2023-06-04T11:30:22;6.60;;;2.13;;
46815;SDS011;32787;53.316;8.670;2023-06-04T11:32:48;7.55;;;1.90;;
46815;SDS011;32787;53.316;8.670;2023-06-04T11:35:15;6.68;;;2.20;;
46815;SDS011;32787;53.316;8.670;2023-06-04T11:37:41;6.88;;;2.25;;
46815;SDS011;32787;53.316;8.670;2023-06-04T11:40:18;7.72;;;2.00;;
46815;SDS011;32787;53.316;8.670;2023-06-04T11:42:45;7.82;;;2.17;;
46815;SDS011;32787;53.316;8.670;2023-06-04T11:45:12;6.55;;;2.50;;
46815;SDS011;32787;53.316;8.670;2023-06-04T11:47:40;8.43;;;2.50;;
46815;SDS011;32787;53.316;8.670;2023-06-04T11:50:12;7.65;;;1.92;;
46815;SDS011;32787;53.316;8.670;2023-06-04T11:52:38;7.53;;;2.00;;
46815;SDS011;32787;53.316;8.670;2023-06-04T11:55:04;5.10;;;2.03;;
46815;SDS011;32787;53.316;8.670;2023-06-04T11:57:32;6.50;;;1.98;;
46815;SDS011;32787;53.316;8.670;2023-06-04T11:59:58;7.03;;;2.13;;
46815;SDS011;32787;53.316;8.670;2023-06-04T12:02:24;9.48;;;2.25;;
46815;SDS011;32787;53.316;8.670;2023-06-04T12:04:50;7.50;;;2.17;;
46815;SDS011;32787;53.316;8.670;2023-06-04T12:07:19;7.90;;;2.10;;
46815;SDS011;32787;53.316;8.670;2023-06-04T12:09:49;6.63;;;2.10;;
46815;SDS011;32787;53.316;8.670;2023-06-04T12:12:20;8.18;;;1.75;;
46815;SDS011;32787;53.316;8.670;2023-06-04T12:14:47;6.68;;;1.90;;
46815;SDS011;32787;53.316;8.670;2023-06-04T12:17:20;7.18;;;1.90;;
46815;SDS011;32787;53.316;8.670;2023-06-04T12:19:46;6.20;;;1.90;;
46815;SDS011;32787;53.316;8.670;2023-06-04T12:22:16;6.18;;;1.70;;
46815;SDS011;32787;53.316;8.670;2023-06-04T12:27:14;4.53;;;1.65;;
46815;SDS011;32787;53.316;8.670;2023-06-04T12:29:40;7.55;;;2.00;;
46815;SDS011;32787;53.316;8.670;2023-06-04T12:32:07;6.47;;;1.75;;
46815;SDS011;32787;53.316;8.670;2023-06-04T12:34:34;6.68;;;2.20;;
46815;SDS011;32787;53.316;8.670;2023-06-04T12:37:00;6.35;;;1.77;;
46815;SDS011;32787;53.316;8.670;2023-06-04T12:39:28;6.30;;;1.83;;
46815;SDS011;32787;53.316;8.670;2023-06-04T12:41:54;6.78;;;1.60;;
46815;SDS011;32787;53.316;8.670;2023-06-04T12:44:20;5.82;;;1.73;;
46815;SDS011;32787;53.316;8.670;2023-06-04T12:46:46;6.50;;;1.77;;
46815;SDS011;32787;53.316;8.670;2023-06-04T12:49:12;6.78;;;1.95;;
46815;SDS011;32787;53.316;8.670;2023-06-04T12:51:37;8.20;;;1.88;;
46815;SDS011;32787;53.316;8.670;2023-06-04T12:54:04;8.13;;;2.17;;
46815;SDS011;32787;53.316;8.670;2023-06-04T12:56:30;7.63;;;1.80;;
46815;SDS011;32787;53.316;8.670;2023-06-04T12:58:55;5.78;;;1.52;;
46815;SDS011;32787;53.316;8.670;2023-06-04T13:01:21;7.32;;;1.50;;
46815;SDS011;32787;53.316;8.670;2023-06-04T13:03:47;7.63;;;1.50;;
46815;SDS011;32787;53.316;8.670;2023-06-04T13:06:12;8.88;;;1.92;;
46815;SDS011;32787;53.316;8.670;2023-06-04T13:08:38;6.03;;;1.65;;
46815;SDS011;32787;53.316;8.670;2023-06-04T13:11:03;5.07;;;1.85;;
46815;SDS011;32787;53.316;8.670;2023-06-04T13:13:30;5.22;;;1.88;;
46815;SDS011;32787;53.316;8.670;2023-06-04T13:15:56;4.47;;;1.45;;
46815;SDS011;32787;53.316;8.670;2023-06-04T13:18:22;4.43;;;1.50;;
46815;SDS011;32787;53.316;8.670;2023-06-04T13:20:48;5.85;;;1.70;;
46815;SDS011;32787;53.316;8.670;2023-06-04T13:23:16;6.45;;;1.88;;
46815;SDS011;32787;53.316;8.670;2023-06-04T13:25:42;7.60;;;1.63;;
46815;SDS011;32787;53.316;8.670;2023-06-04T13:28:08;5.03;;;1.70;;
46815;SDS011;32787;53.316;8.670;2023-06-04T13:30:37;7.82;;;1.65;;
46815;SDS011;32787;53.316;8.670;2023-06-04T13:33:03;9.00;;;1.70;;
46815;SDS011;32787;53.316;8.670;2023-06-04T13:35:29;6.30;;;1.50;;
46815;SDS011;32787;53.316;8.670;2023-06-04T13:37:55;5.60;;;1.40;;
46815;SDS011;32787;53.316;8.670;2023-06-04T13:40:20;7.13;;;1.67;;
46815;SDS011;32787;53.316;8.670;2023-06-04T13:42:46;6.50;;;1.65;;
46815;SDS011;32787;53.316;8.670;2023-06-04T13:45:11;6.70;;;1.70;;
46815;SDS011;32787;53.316;8.670;2023-06-04T13:47:37;5.43;;;1.63;;
46815;SDS011;32787;53.316;8.670;2023-06-04T13:50:03;5.13;;;1.60;;
46815;SDS011;32787;53.316;8.670;2023-06-04T13:52:29;4.10;;;1.50;;
46815;SDS011;32787;53.316;8.670;2023-06-04T13:54:55;5.75;;;1.40;;
46815;SDS011;32787;53.316;8.670;2023-06-04T13:57:24;4.15;;;1.63;;
46815;SDS011;32787;53.316;8.670;2023-06-04T13:59:50;4.45;;;1.38;;
46815;SDS011;32787;53.316;8.670;2023-06-04T14:02:16;6.00;;;1.40;;
46815;SDS011;32787;53.316;8.670;2023-06-04T14:04:41;4.93;;;1.38;;
46815;SDS011;32787;53.316;8.670;2023-06-04T14:07:07;5.97;;;1.80;;
46815;SDS011;32787;53.316;8.670;2023-06-04T14:09:33;8.68;;;1.58;;
46815;SDS011;32787;53.316;8.670;2023-06-04T14:12:00;6.60;;;1.77;;
46815;SDS011;32787;53.316;8.670;2023-06-04T14:14:26;5.78;;;1.60;;
46815;SDS011;32787;53.316;8.670;2023-06-04T14:16:53;3.35;;;1.38;;
46815;SDS011;32787;53.316;8.670;2023-06-04T14:19:20;4.15;;;1.38;;
46815;SDS011;32787;53.316;8.670;2023-06-04T14:21:46;3.45;;;1.10;;
46815;SDS011;32787;53.316;8.670;2023-06-04T14:24:11;3.88;;;1.33;;
46815;SDS011;32787;53.316;8.670;2023-06-04T14:26:37;5.47;;;1.50;;
46815;SDS011;32787;53.316;8.670;2023-06-04T14:29:02;5.32;;;1.50;;
46815;SDS011;32787;53.316;8.670;2023-06-04T14:31:28;6.72;;;1.63;;
46815;SDS011;32787;53.316;8.670;2023-06-04T14:33:54;5.80;;;1.55;;
46815;SDS011;32787;53.316;8.670;2023-06-04T14:36:19;3.67;;;1.30;;
46815;SDS011;32787;53.316;8.670;2023-06-04T14:38:45;4.85;;;1.45;;
46815;SDS011;32787;53.316;8.670;2023-06-04T14:41:12;4.63;;;1.50;;
46815;SDS011;32787;53.316;8.670;2023-06-04T14:43:39;6.88;;;1.50;;
46815;SDS011;32787;53.316;8.670;2023-06-04T14:46:04;6.60;;;1.63;;
46815;SDS011;32787;53.316;8.670;2023-06-04T14:48:30;5.20;;;1.40;;
46815;SDS011;32787;53.316;8.670;2023-06-04T14:50:55;5.32;;;1.48;;
46815;SDS011;32787;53.316;8.670;2023-06-04T14:53:21;5.88;;;1.42;;
46815;SDS011;32787;53.316;8.670;2023-06-04T14:55:47;4.32;;;1.55;;